Decoded Metar for KSTF ( in ) (IATA:) | Meteo·Mobile Aviation Weather
aviador You're here:

KSTF Decoded Metar

in
Report Time2018-08-22 01:15:00
UTC Time2018-08-22 01:32:16
Flight Rules vfr VFR
WindCalm
Visibility9999 m
Phenomena:N/A
Clouds:Overcast 055 Hf
Expected CloudBase > 2,000 ft AGL from Temp-Dew spread
Ceiling5,500 ft
Temp25°C
Dew Point20°C (74% RH)
QNH1018 hPa
Raw Report
KSTF 220115Z AUTO 00000KT 10SM OVC055 25/20 A3005 RMK AO2=

Extra information for KSTF:More info

Social comments